Time;durP1;ratioP1;P1;durP2;ratioP2;P2;SDS_P1;SDS_P2;PMS_P1;PMS_P2;Temp;Humidity;BMP_temperature;BMP_pressure;BME280_temperature;BME280_humidity;BME280_pressure;Samples;Min_cycle;Max_cycle;Signal;HPM_P1;HPM_P2
2023/01/25 00:01:19;;;;;;;45.77;17.03;;;0.60;99.90;;;-1.74;100.00;101667.91;10432778;28;20064;-79
2023/01/25 00:06:23;;;;;;;36.27;15.87;;;0.60;99.90;;;-1.75;100.00;101671.41;10443467;28;20196;-78
2023/01/25 00:11:26;;;;;;;53.97;18.10;;;0.60;99.90;;;-1.74;100.00;101672.25;10476970;28;20148;-79
2023/01/25 00:16:29;;;;;;;59.47;21.90;;;0.60;99.90;;;-1.76;100.00;101674.06;10438921;28;20065;-79
2023/01/25 00:21:33;;;;;;;53.87;18.27;;;0.60;99.90;;;-1.75;100.00;101681.81;10423096;28;20061;-78
2023/01/25 00:26:38;;;;;;;51.20;19.00;;;0.60;99.90;;;-1.73;100.00;101679.19;10443451;28;20061;-78
2023/01/25 00:31:57;;;;;;;64.57;21.30;;;0.60;99.90;;;-1.72;100.00;101670.47;10456376;28;20125;-79
2023/01/25 00:37:16;;;;;;;31.43;14.27;;;0.60;99.90;;;-1.73;100.00;101673.97;10447188;28;20085;-78
2023/01/25 00:42:20;;;;;;;36.83;14.47;;;0.60;99.90;;;-1.76;100.00;101674.91;10493053;28;20060;-78
2023/01/25 00:47:23;;;;;;;37.60;16.87;;;0.50;99.90;;;-1.76;100.00;101681.88;10430389;28;20144;-79
2023/01/25 00:52:27;;;;;;;41.63;18.37;;;0.50;99.90;;;-1.77;100.00;101694.06;10440849;28;20064;-78
2023/01/25 00:57:30;;;;;;;43.50;18.40;;;0.50;99.90;;;-1.78;100.00;101696.72;10442707;28;20199;-79
2023/01/25 01:02:33;;;;;;;44.33;18.27;;;0.50;99.90;;;-1.80;100.00;101695.91;10437543;28;20061;-79
2023/01/25 01:07:36;;;;;;;34.47;14.33;;;0.40;99.90;;;-1.81;100.00;101697.66;10424980;28;20064;-79
2023/01/25 01:12:39;;;;;;;37.67;15.13;;;0.40;99.90;;;-1.83;100.00;101691.66;10437957;28;20057;-79
2023/01/25 01:17:42;;;;;;;46.20;16.10;;;0.40;99.90;;;-1.82;100.00;101689.91;10448948;28;20061;-79
2023/01/25 01:22:45;;;;;;;46.60;16.00;;;0.40;99.90;;;-1.82;100.00;101689.91;10489611;28;20064;-79
2023/01/25 01:27:48;;;;;;;33.33;13.27;;;0.40;99.90;;;-1.81;100.00;101689.00;10443702;28;20057;-78
2023/01/25 01:32:51;;;;;;;37.73;15.07;;;0.40;99.90;;;-1.83;100.00;101690.81;10433448;28;20062;-78
2023/01/25 01:37:54;;;;;;;39.13;16.03;;;0.40;99.90;;;-1.86;100.00;101683.09;10400445;28;20061;-79
2023/01/25 01:43:00;;;;;;;40.83;15.70;;;0.40;99.90;;;-1.85;100.00;101679.59;10472830;28;20058;-78
2023/01/25 01:48:03;;;;;;;33.27;12.93;;;0.40;99.90;;;-1.83;100.00;101683.00;10437270;28;20065;-77
2023/01/25 01:53:07;;;;;;;40.57;16.50;;;0.40;99.90;;;-1.81;100.00;101671.59;10455377;28;20494;-79
2023/01/25 01:58:10;;;;;;;34.13;14.23;;;0.40;99.90;;;-1.80;100.00;101672.47;10472951;28;20069;-78
2023/01/25 02:03:15;;;;;;;40.93;14.17;;;0.40;99.90;;;-1.82;100.00;101675.13;10451048;28;20495;-79
2023/01/25 02:08:20;;;;;;;34.53;14.50;;;0.40;99.90;;;-1.83;100.00;101670.81;10442180;28;20140;-79
2023/01/25 02:13:23;;;;;;;36.70;13.90;;;0.40;99.90;;;-1.83;100.00;101683.84;10477470;28;20105;-78
2023/01/25 02:18:26;;;;;;;35.13;13.40;;;0.40;99.90;;;-1.86;100.00;101685.69;10428897;28;20061;-79
2023/01/25 02:23:42;;;;;;;31.87;13.80;;;0.40;99.90;;;-1.89;100.00;101684.06;10479838;28;21237;-79
2023/01/25 02:28:51;;;;;;;30.87;12.07;;;0.30;99.90;;;-1.90;100.00;101670.19;10456178;28;20092;-78
2023/01/25 02:33:55;;;;;;;24.33;10.70;;;0.30;99.90;;;-1.91;100.00;101662.44;10463399;28;20112;-79
2023/01/25 02:39:17;;;;;;;28.67;11.10;;;0.30;99.90;;;-1.93;100.00;101659.00;10444983;28;20084;-78
2023/01/25 02:44:32;;;;;;;30.50;13.10;;;0.30;99.90;;;-1.95;100.00;101653.00;10451125;28;20842;-79
2023/01/25 02:49:36;;;;;;;28.53;11.80;;;0.30;99.90;;;-1.98;100.00;101659.19;10479109;28;20061;-79
2023/01/25 02:54:39;;;;;;;27.87;10.83;;;0.20;99.90;;;-1.98;100.00;101653.97;10461758;28;20059;-78
2023/01/25 02:59:42;;;;;;;22.53;9.57;;;0.20;99.90;;;-2.00;100.00;101640.13;10480136;28;20088;-78
2023/01/25 03:04:45;;;;;;;23.97;8.63;;;0.20;99.90;;;-1.99;100.00;101647.03;10458790;28;20115;-79
2023/01/25 03:09:48;;;;;;;36.50;13.10;;;0.20;99.90;;;-2.02;100.00;101641.09;10460310;28;20152;-78
2023/01/25 03:14:51;;;;;;;26.77;9.97;;;0.20;99.90;;;-2.01;100.00;101637.59;10430123;28;20057;-78
2023/01/25 03:19:54;;;;;;;21.20;8.10;;;0.20;99.90;;;-2.03;100.00;101635.03;10498270;28;20067;-78
2023/01/25 03:24:57;;;;;;;22.33;8.73;;;0.20;99.90;;;-2.02;100.00;101644.56;10427520;28;20061;-79
2023/01/25 03:30:00;;;;;;;30.43;11.23;;;0.10;99.90;;;-2.03;100.00;101648.06;10458200;28;20068;-79
2023/01/25 03:35:04;;;;;;;25.90;8.97;;;0.10;99.90;;;-2.01;100.00;101653.22;10477365;28;20064;-78
2023/01/25 03:40:09;;;;;;;23.97;10.00;;;0.10;99.90;;;-2.02;100.00;101652.38;10429319;28;20061;-79
2023/01/25 03:45:13;;;;;;;31.83;12.27;;;0.10;99.90;;;-2.02;100.00;101644.56;10458047;28;20072;-78
2023/01/25 03:50:16;;;;;;;26.57;9.63;;;0.20;99.90;;;-2.06;100.00;101640.34;10434409;28;20061;-79
2023/01/25 03:55:19;;;;;;;23.50;10.57;;;0.10;99.90;;;-2.06;100.00;101631.69;10444561;28;20263;-78
2023/01/25 04:00:22;;;;;;;28.03;10.23;;;0.10;99.90;;;-2.09;100.00;101632.66;10450752;28;20057;-78
2023/01/25 04:05:25;;;;;;;23.53;9.63;;;0.10;99.90;;;-2.12;100.00;101629.28;10460776;28;20085;-78
2023/01/25 04:10:28;;;;;;;31.13;11.20;;;0.00;99.90;;;-2.15;100.00;101640.66;10437443;28;20057;-79
2023/01/25 04:15:31;;;;;;;18.37;8.63;;;0.00;99.90;;;-2.20;100.00;101639.97;10425646;28;20069;-79
2023/01/25 04:20:35;;;;;;;22.20;9.43;;;0.00;99.90;;;-2.21;100.00;101640.88;10440623;28;20503;-79
2023/01/25 04:25:38;;;;;;;25.70;11.10;;;0.00;99.90;;;-2.24;100.00;101633.16;10461343;28;20112;-79
2023/01/25 04:30:41;;;;;;;35.63;15.00;;;-0.10;99.90;;;-2.24;100.00;101630.53;10444987;28;20092;-79
2023/01/25 04:35:44;;;;;;;28.40;12.63;;;-0.10;99.90;;;-2.24;100.00;101633.16;10442467;28;20065;-79
2023/01/25 04:40:47;;;;;;;47.47;16.90;;;-0.10;99.90;;;-2.28;100.00;101618.50;10441734;28;20526;-79
2023/01/25 04:45:51;;;;;;;34.87;15.77;;;-0.10;99.90;;;-2.25;100.00;101634.06;10459237;28;20123;-78
2023/01/25 04:50:54;;;;;;;53.43;20.70;;;-0.10;99.90;;;-2.27;100.00;101626.31;10492596;28;20096;-79
2023/01/25 04:55:57;;;;;;;59.40;19.83;;;-0.10;99.90;;;-2.30;100.00;101623.78;10475262;28;20084;-79
2023/01/25 05:01:03;;;;;;;60.50;20.30;;;-0.10;99.90;;;-2.33;100.00;101620.44;10457565;28;20053;-79
2023/01/25 05:06:06;;;;;;;54.97;18.07;;;-0.10;99.90;;;-2.34;100.00;101639.56;10466776;28;20057;-79
2023/01/25 05:11:09;;;;;;;43.97;16.43;;;-0.20;99.90;;;-2.39;100.00;101637.13;10515148;28;20518;-79
2023/01/25 05:16:12;;;;;;;38.93;16.00;;;-0.20;99.90;;;-2.43;100.00;101631.16;10446363;28;20089;-78
2023/01/25 05:31:58;;;;;;;30.55;13.70;;;-0.40;99.90;;;-2.57;100.00;101656.78;10464676;28;20141;-78
2023/01/25 05:37:04;;;;;;;29.83;12.87;;;-0.40;99.90;;;-2.58;100.00;101647.28;10442903;28;20065;-80
2023/01/25 05:42:17;;;;;;;36.70;13.30;;;-0.50;99.90;;;-2.61;100.00;101642.16;10441321;28;20093;-79
2023/01/25 05:47:20;;;;;;;28.10;10.40;;;-0.50;99.90;;;-2.63;100.00;101649.16;10454011;28;20065;-78
2023/01/25 05:52:23;;;;;;;36.70;14.30;;;-0.50;99.90;;;-2.65;100.00;101640.53;10476656;28;20054;-80
2023/01/25 05:57:27;;;;;;;35.50;13.30;;;-0.50;99.90;;;-2.65;100.00;101644.91;10456833;28;20089;-80
2023/01/25 06:02:31;;;;;;;33.20;14.80;;;-0.50;99.90;;;-2.67;100.00;101642.34;10448774;28;20531;-82
2023/01/25 06:07:35;;;;;;;36.30;14.47;;;-0.50;99.90;;;-2.69;100.00;101649.38;10455346;28;20115;-83
2023/01/25 06:12:39;;;;;;;66.90;25.67;;;-0.50;99.90;;;-2.67;100.00;101664.91;10483116;28;20062;-80
2023/01/25 06:17:42;;;;;;;137.73;47.77;;;-0.50;99.90;;;-2.72;100.00;101659.84;10454711;28;20068;-80
2023/01/25 06:22:53;;;;;;;87.97;30.97;;;-0.60;99.90;;;-2.75;100.00;101667.78;10456307;28;20153;-79
2023/01/25 06:27:56;;;;;;;77.77;30.57;;;-0.60;99.90;;;-2.76;100.00;101672.13;10455226;28;20156;-80
2023/01/25 06:33:00;;;;;;;101.53;38.03;;;-0.60;99.90;;;-2.79;100.00;101676.56;10449296;28;20060;-80
2023/01/25 06:38:03;;;;;;;103.63;36.70;;;-0.60;99.90;;;-2.76;100.00;101673.84;10452580;28;20120;-79
2023/01/25 06:43:09;;;;;;;89.67;32.30;;;-0.60;99.90;;;-2.75;100.00;101686.84;10456633;28;20384;-80
2023/01/25 06:48:29;;;;;;;90.93;29.70;;;-0.60;99.90;;;-2.74;100.00;101678.13;10768733;27;20214;-78
2023/01/25 06:53:36;;;;;;;67.33;24.93;;;-0.60;99.90;;;-2.72;100.00;101678.91;10696594;27;20062;-79
2023/01/25 06:58:39;;;;;;;76.00;27.63;;;-0.50;99.90;;;-2.66;100.00;101690.88;10700551;27;20101;-78
2023/01/25 07:03:42;;;;;;;70.80;27.97;;;-0.50;99.90;;;-2.61;100.00;101677.75;10707361;27;20062;-78
2023/01/25 07:08:47;;;;;;;67.93;24.50;;;-0.40;99.90;;;-2.55;100.00;101683.59;10716028;27;20141;-79
2023/01/25 07:13:49;;;;;;;58.97;22.00;;;-0.40;99.90;;;-2.19;100.00;101685.94;10688993;27;20055;-78
2023/01/25 07:18:53;;;;;;;55.87;22.80;;;-0.30;99.90;;;-1.89;100.00;101684.06;10694040;27;20062;-78
2023/01/25 07:24:03;;;;;;;45.47;22.27;;;-0.20;99.90;;;-1.77;100.00;101677.56;10731537;27;20050;-79
2023/01/25 07:29:08;;;;;;;52.13;22.13;;;-0.10;99.90;;;-1.72;100.00;101678.28;10701696;27;20063;-78
2023/01/25 07:34:13;;;;;;;46.83;23.47;;;0.00;99.90;;;-1.75;100.00;101673.16;10672872;27;20572;-79
2023/01/25 07:39:16;;;;;;;90.47;31.77;;;0.10;99.90;;;-1.79;100.00;101674.19;10714795;27;20072;-78
2023/01/25 07:44:19;;;;;;;66.03;29.77;;;0.20;99.90;;;-1.75;100.00;101678.38;10712668;27;20064;-78
2023/01/25 07:49:22;;;;;;;64.43;28.60;;;0.30;99.90;;;-1.57;100.00;101669.06;10731583;27;20058;-79
2023/01/25 07:54:25;;;;;;;56.63;24.77;;;0.50;99.90;;;-1.40;100.00;101667.53;10687996;27;20509;-79
2023/01/25 07:59:30;;;;;;;83.70;35.23;;;0.70;99.90;;;-1.33;100.00;101660.34;10679287;27;20077;-79
2023/01/25 08:04:33;;;;;;;51.40;25.47;;;0.90;99.90;;;-1.29;100.00;101658.47;10659023;27;20424;-78
2023/01/25 08:09:36;;;;;;;56.60;27.10;;;1.00;99.90;;;-1.24;100.00;101660.03;10641994;27;20062;-78
2023/01/25 08:14:39;;;;;;;85.17;38.27;;;1.10;99.90;;;-1.20;100.00;101653.78;10661094;27;20055;-78
2023/01/25 08:19:42;;;;;;;87.60;37.20;;;1.20;99.90;;;-1.12;100.00;101656.09;10628391;27;20063;-78
2023/01/25 08:24:45;;;;;;;118.90;50.97;;;1.40;99.90;;;-1.05;100.00;101649.75;10624455;27;20055;-79
2023/01/25 08:29:52;;;;;;;102.67;46.43;;;1.50;99.90;;;-0.93;100.00;101644.06;10663793;27;20055;-79
2023/01/25 08:34:55;;;;;;;88.47;39.87;;;1.60;99.90;;;-0.78;100.00;101646.97;10668740;27;20493;-79
2023/01/25 08:39:58;;;;;;;65.10;32.30;;;1.80;99.90;;;-0.68;100.00;101646.56;10641244;27;20057;-79
2023/01/25 08:45:02;;;;;;;43.37;23.40;;;2.00;99.90;;;-0.56;100.00;101647.81;10659157;27;20061;-79
2023/01/25 08:50:06;;;;;;;39.93;19.17;;;2.10;99.90;;;-0.45;100.00;101653.47;10672654;27;20055;-79
2023/01/25 08:55:10;;;;;;;48.60;22.97;;;2.30;99.90;;;-0.33;100.00;101649.50;10675997;27;20082;-79
2023/01/25 09:00:14;;;;;;;43.00;19.83;;;2.40;99.90;;;-0.29;100.00;101649.34;10679498;27;20082;-79
2023/01/25 09:05:17;;;;;;;43.87;21.03;;;2.50;99.90;;;-0.30;100.00;101645.03;10682569;27;20526;-79
2023/01/25 09:10:20;;;;;;;40.83;19.63;;;2.50;99.90;;;-0.24;100.00;101653.50;10682507;27;20135;-79
2023/01/25 09:15:24;;;;;;;38.87;17.97;;;2.50;99.90;;;-0.23;100.00;101650.84;10674748;27;20142;-79
2023/01/25 09:20:27;;;;;;;38.40;17.83;;;2.60;99.90;;;-0.22;100.00;101641.25;10683447;27;20050;-79
2023/01/25 09:25:34;;;;;;;35.97;18.37;;;2.60;99.90;;;-0.18;100.00;101646.28;10676469;27;20504;-79
2023/01/25 09:30:38;;;;;;;33.00;17.27;;;2.60;99.90;;;-0.12;100.00;101646.03;10681779;27;20078;-79
2023/01/25 09:35:51;;;;;;;43.20;19.40;;;2.60;99.90;;;-0.06;100.00;101634.44;10683615;27;20107;-79
2023/01/25 09:41:03;;;;;;;42.00;19.10;;;2.70;99.90;;;0.03;100.00;101641.91;10693355;27;20062;-79
2023/01/25 09:46:36;;;;;;;50.43;21.50;;;2.80;99.90;;;0.10;100.00;101626.81;10660859;27;20193;-78
2023/01/25 09:52:00;;;;;;;46.33;20.70;;;3.00;99.90;;;0.17;100.00;101621.25;10642615;27;20055;-79
2023/01/25 09:57:09;;;;;;;44.33;19.63;;;3.00;99.90;;;0.22;100.00;101608.81;10650847;27;20385;-79
2023/01/25 10:02:48;;;;;;;35.57;18.87;;;3.10;99.90;;;0.31;100.00;101606.75;10639715;27;20066;-79
2023/01/25 10:08:43;;;;;;;48.73;23.20;;;3.20;99.90;;;0.37;100.00;101585.53;10640383;27;20417;-79
2023/01/25 10:13:47;;;;;;;39.50;18.47;;;3.20;99.90;;;0.42;100.00;101578.31;10693736;27;20055;-79
2023/01/25 10:19:04;;;;;;;28.27;13.43;;;3.30;99.90;;;0.47;100.00;101586.81;10699405;27;20058;-78
2023/01/25 10:24:46;;;;;;;34.93;14.10;;;3.30;99.90;;;0.53;100.00;101578.69;10680217;27;20063;-79
2023/01/25 10:29:55;;;;;;;25.58;12.38;;;3.40;99.90;;;0.61;100.00;101571.34;10654107;27;20061;-79
2023/01/25 10:35:17;;;;;;;23.53;10.40;;;3.40;99.90;;;0.69;100.00;101553.53;10646893;27;20059;-79
2023/01/25 10:40:58;;;;;;;23.40;11.33;;;3.50;99.90;;;0.78;100.00;101560.94;10642174;27;20061;-79
2023/01/25 10:46:01;;;;;;;23.30;11.73;;;3.60;99.90;;;0.86;100.00;101551.88;10679990;27;20491;-79
2023/01/25 10:51:04;;;;;;;18.87;10.97;;;3.70;99.90;;;0.92;100.00;101544.59;10694537;27;20062;-79
2023/01/25 10:56:08;;;;;;;16.53;8.83;;;3.80;99.90;;;1.01;100.00;101538.06;10672845;27;20052;-79
2023/01/25 11:01:24;;;;;;;21.60;9.93;;;3.90;99.90;;;1.10;100.00;101527.16;10654018;27;20152;-79
2023/01/25 11:06:45;;;;;;;18.20;8.40;;;4.00;99.90;;;1.20;100.00;101522.28;10694581;27;20059;-79
2023/01/25 11:12:06;;;;;;;18.17;7.78;;;4.10;99.90;;;1.28;100.00;101507.91;10639162;27;20061;-78
2023/01/25 11:17:30;;;;;;;21.90;8.70;;;4.10;99.90;;;1.39;100.00;101502.16;10620928;27;20066;-79
2023/01/25 11:22:33;;;;;;;19.47;9.03;;;4.20;99.90;;;1.49;100.00;101494.66;10683872;27;20061;-79
2023/01/25 11:27:36;;;;;;;14.77;7.70;;;4.30;99.90;;;1.59;100.00;101486.25;10665514;27;20118;-79
2023/01/25 11:32:40;;;;;;;20.10;10.53;;;4.40;99.90;;;1.74;100.00;101475.88;10683566;27;20055;-79
2023/01/25 11:38:22;;;;;;;24.00;10.33;;;4.60;99.90;;;1.87;100.00;101456.00;10688789;27;20090;-79
2023/01/25 11:43:46;;;;;;;16.20;8.20;;;4.70;99.90;;;1.98;100.00;101440.53;10661239;27;20058;-79
2023/01/25 11:48:49;;;;;;;16.37;7.77;;;4.90;99.90;;;2.09;100.00;101429.44;10640662;27;20055;-78
2023/01/25 11:54:29;;;;;;;16.07;7.07;;;5.10;99.90;;;2.20;100.00;101415.75;10657288;27;20077;-78
2023/01/25 11:59:42;;;;;;;12.87;6.87;;;5.20;99.90;;;2.25;100.00;101411.94;10676445;27;20066;-79
2023/01/25 12:04:55;;;;;;;15.20;7.53;;;5.20;99.90;;;2.27;100.00;101409.25;10657269;27;20504;-79
2023/01/25 12:10:02;;;;;;;10.57;5.70;;;5.30;99.90;;;2.25;100.00;101400.63;10641654;27;20155;-79
2023/01/25 12:15:39;;;;;;;14.60;6.20;;;5.20;99.90;;;2.21;100.00;101383.34;10640123;27;20061;-79
2023/01/25 12:21:05;;;;;;;13.70;5.60;;;5.10;99.90;;;2.18;100.00;101384.38;10644986;27;20108;-79
2023/01/25 12:26:49;;;;;;;22.97;10.27;;;5.10;99.90;;;2.14;100.00;101382.84;10659051;27;20142;-79
2023/01/25 12:32:10;;;;;;;20.40;8.60;;;5.10;99.90;;;2.11;100.00;101377.78;10577073;27;20500;-81
2023/01/25 12:37:31;;;;;;;26.07;10.23;;;5.00;99.90;;;2.09;100.00;101377.84;10591362;27;20090;-81
2023/01/25 12:42:54;;;;;;;15.80;7.30;;;5.00;99.90;;;2.07;100.00;101377.09;10657430;27;20145;-80
2023/01/25 12:48:30;;;;;;;12.50;5.97;;;4.90;99.90;;;2.09;100.00;101369.13;10641819;27;20101;-81
2023/01/25 12:53:45;;;;;;;17.60;7.33;;;4.90;99.90;;;2.13;100.00;101350.53;10657821;27;20051;-80
2023/01/25 12:59:00;;;;;;;18.13;7.93;;;4.90;99.90;;;2.19;100.00;101346.72;10686880;27;20082;-80
2023/01/25 13:04:26;;;;;;;17.33;7.87;;;5.00;99.90;;;2.28;100.00;101343.59;10701075;27;20078;-80
2023/01/25 13:10:01;;;;;;;15.97;6.70;;;5.10;99.90;;;2.35;100.00;101342.31;10656593;27;20123;-80
2023/01/25 13:15:36;;;;;;;9.90;5.23;;;5.10;99.90;;;2.42;100.00;101330.53;10638120;27;20055;-81
2023/01/25 13:20:42;;;;;;;14.13;5.97;;;5.20;99.90;;;2.53;100.00;101324.69;10641225;27;20087;-81
2023/01/25 13:25:45;;;;;;;14.73;5.93;;;5.30;99.90;;;2.54;100.00;101313.25;10643200;27;20423;-80
2023/01/25 13:30:54;;;;;;;12.17;6.73;;;5.30;99.90;;;2.60;100.00;101304.16;10680467;27;20129;-81
2023/01/25 13:36:17;;;;;;;27.47;10.53;;;5.30;99.90;;;2.62;100.00;101318.03;10683482;27;20055;-80
2023/01/25 13:41:21;;;;;;;19.10;8.63;;;5.40;99.90;;;2.59;100.00;101303.31;10659438;27;20081;-80
2023/01/25 13:46:25;;;;;;;15.57;7.70;;;5.40;99.90;;;2.56;100.00;101305.28;10612832;27;20471;-81
2023/01/25 13:51:33;;;;;;;15.97;7.57;;;5.30;99.90;;;2.54;100.00;101304.53;10596459;27;20063;-81
2023/01/25 13:56:36;;;;;;;16.87;8.63;;;5.20;99.90;;;2.51;100.00;101302.06;10612979;27;20142;-81
2023/01/25 14:01:39;;;;;;;16.53;7.60;;;5.20;99.90;;;2.51;100.00;101299.44;10612630;27;20056;-80
2023/01/25 14:06:43;;;;;;;15.93;8.10;;;5.20;99.90;;;2.49;99.93;101298.69;10628892;27;20416;-80
2023/01/25 14:11:57;;;;;;;21.10;9.00;;;5.10;99.90;;;2.51;99.63;101299.44;10629486;27;20138;-80
2023/01/25 14:17:16;;;;;;;12.90;6.57;;;5.10;99.90;;;2.48;99.55;101295.22;10613062;27;20534;-80
2023/01/25 14:22:31;;;;;;;19.10;8.93;;;5.10;99.90;;;2.46;99.58;101297.09;10640952;27;20059;-80
2023/01/25 14:27:54;;;;;;;16.90;8.80;;;5.10;99.90;;;2.41;98.64;101292.13;10651870;27;20057;-80
2023/01/25 14:33:00;;;;;;;16.23;7.63;;;5.00;99.90;;;2.40;98.69;101297.47;10655357;27;20055;-80
2023/01/25 14:38:32;;;;;;;14.00;7.00;;;5.00;99.90;;;2.37;98.69;101295.00;10653231;27;20059;-80
2023/01/25 14:43:36;;;;;;;17.50;8.60;;;4.90;99.90;;;2.31;98.58;101280.47;10645282;27;20067;-81
2023/01/25 14:48:41;;;;;;;19.77;8.40;;;4.90;99.90;;;2.29;98.68;101287.59;10593399;27;20079;-80
2023/01/25 14:53:49;;;;;;;28.67;10.93;;;4.90;99.90;;;2.25;98.77;101282.59;10612545;27;20059;-80
2023/01/25 14:58:54;;;;;;;36.13;12.40;;;4.80;99.90;;;2.20;98.83;101282.00;10632525;27;20063;-80
2023/01/25 15:04:02;;;;;;;18.07;8.07;;;4.70;99.90;;;2.16;98.86;101276.13;10611969;27;20055;-80
2023/01/25 15:09:34;;;;;;;13.67;7.17;;;4.70;99.90;;;2.12;98.83;101277.22;10615589;27;20055;-80
2023/01/25 15:14:49;;;;;;;20.20;9.05;;;4.70;99.90;;;2.06;98.88;101280.19;10615545;27;20061;-80
2023/01/25 15:19:52;;;;;;;13.23;6.60;;;4.60;99.90;;;2.01;98.91;101274.34;10619017;27;20618;-80
2023/01/25 15:24:55;;;;;;;12.67;6.47;;;4.50;99.90;;;1.96;98.72;101273.75;10649924;27;20142;-80
2023/01/25 15:30:00;;;;;;;14.97;5.97;;;4.50;99.90;;;1.91;98.83;101274.00;10626406;27;20409;-80
2023/01/25 15:35:05;;;;;;;11.67;6.40;;;4.40;99.90;;;1.85;98.87;101275.19;10633675;27;20142;-81
2023/01/25 15:40:11;;;;;;;16.33;8.87;;;4.40;99.90;;;1.86;99.32;101276.06;10616721;27;20063;-80
2023/01/25 15:45:14;;;;;;;19.43;8.30;;;4.40;99.90;;;1.82;99.23;101272.75;10601001;27;20063;-80
2023/01/25 15:50:18;;;;;;;21.70;8.70;;;4.30;99.90;;;1.78;99.53;101263.38;10642599;27;20063;-80
2023/01/25 15:55:23;;;;;;;18.57;9.00;;;4.30;99.90;;;1.81;99.81;101276.31;10685698;27;20063;-81
2023/01/25 16:00:26;;;;;;;51.20;14.47;;;4.30;99.90;;;1.76;99.86;101254.75;10686159;27;20065;-80
2023/01/25 16:05:29;;;;;;;40.37;14.40;;;4.30;99.90;;;1.75;100.00;101260.09;10664915;27;20061;-80
2023/01/25 16:10:32;;;;;;;21.70;8.77;;;4.30;99.90;;;1.76;100.00;101261.78;10641949;27;20583;-80
2023/01/25 16:15:37;;;;;;;29.23;10.57;;;4.30;99.90;;;1.72;100.00;101255.84;10645114;27;20056;-80
2023/01/25 16:20:42;;;;;;;31.93;10.50;;;4.30;99.90;;;1.70;100.00;101249.84;10683154;27;20065;-81
2023/01/25 16:25:50;;;;;;;26.00;11.23;;;4.20;99.90;;;1.68;100.00;101254.34;10684535;27;20120;-80
2023/01/25 16:30:53;;;;;;;21.47;9.77;;;4.20;99.90;;;1.64;100.00;101247.59;10670642;27;20580;-80
2023/01/25 16:36:24;;;;;;;34.60;15.63;;;4.10;99.90;;;1.61;100.00;101247.72;10675890;27;20059;-80
2023/01/25 16:41:27;;;;;;;33.93;13.17;;;4.10;99.90;;;1.53;100.00;101234.22;10645938;27;20067;-80
2023/01/25 16:46:30;;;;;;;57.13;20.63;;;4.10;99.90;;;1.52;100.00;101243.84;10646410;27;20059;-80
2023/01/25 16:51:35;;;;;;;49.57;21.93;;;4.00;99.90;;;1.51;100.00;101250.03;10644502;27;20059;-79
2023/01/25 16:56:38;;;;;;;69.27;25.67;;;4.00;99.90;;;1.53;100.00;101239.47;10650302;27;20055;-80
2023/01/25 17:01:42;;;;;;;44.30;19.87;;;4.00;99.90;;;1.51;100.00;101249.19;10697067;27;20080;-80
2023/01/25 17:06:48;;;;;;;36.70;18.30;;;4.00;99.90;;;1.52;100.00;101236.00;10672113;27;20127;-80
2023/01/25 17:11:54;;;;;;;42.97;19.43;;;4.00;99.90;;;1.52;100.00;101232.53;10665768;27;20104;-80
2023/01/25 17:16:59;;;;;;;43.40;16.90;;;4.00;99.90;;;1.47;100.00;101214.44;10681851;27;20051;-80
2023/01/25 17:22:02;;;;;;;35.00;15.70;;;4.00;99.90;;;1.49;100.00;101223.06;10701028;27;20107;-80
2023/01/25 17:27:05;;;;;;;29.27;12.67;;;4.00;99.90;;;1.50;100.00;101226.53;10699034;27;20055;-80
2023/01/25 17:32:08;;;;;;;42.47;17.97;;;4.00;99.90;;;1.49;100.00;101214.34;10680393;27;20496;-80
2023/01/25 17:37:11;;;;;;;35.07;16.90;;;4.00;99.90;;;1.49;100.00;101209.13;10664803;27;20419;-80
2023/01/25 17:42:14;;;;;;;30.90;12.93;;;4.00;99.90;;;1.44;100.00;101213.75;10668596;27;20066;-80
2023/01/25 17:47:17;;;;;;;30.27;15.23;;;4.00;99.90;;;1.42;100.00;101198.13;10671954;27;20068;-80
2023/01/25 17:52:20;;;;;;;34.13;16.40;;;3.90;99.90;;;1.38;100.00;101191.41;10698920;27;20058;-80
2023/01/25 17:57:25;;;;;;;29.83;16.07;;;3.90;99.90;;;1.38;100.00;101186.16;10676544;27;20050;-81
2023/01/25 18:02:29;;;;;;;34.30;13.73;;;3.90;99.90;;;1.38;100.00;101187.91;10684421;27;20055;-80
2023/01/25 18:07:32;;;;;;;35.87;15.43;;;3.90;99.90;;;1.39;100.00;101189.63;10679110;27;20058;-81
2023/01/25 18:12:36;;;;;;;35.83;17.13;;;3.80;99.90;;;1.39;100.00;101194.88;10698486;27;20062;-80
2023/01/25 18:17:39;;;;;;;41.77;19.83;;;3.80;99.90;;;1.39;100.00;101197.47;10683260;27;20146;-80
2023/01/25 18:22:42;;;;;;;45.80;19.53;;;3.80;99.90;;;1.39;100.00;101194.88;10662594;27;20051;-80
2023/01/25 18:27:45;;;;;;;38.83;19.57;;;3.80;99.90;;;1.41;100.00;101185.13;10694542;27;20061;-81
2023/01/25 18:32:48;;;;;;;44.07;18.67;;;3.80;99.90;;;1.39;100.00;101163.44;10648815;27;20423;-80
2023/01/25 18:37:51;;;;;;;40.10;16.90;;;3.90;99.90;;;1.39;100.00;101161.66;10652759;27;20540;-80
2023/01/25 18:42:54;;;;;;;38.20;17.10;;;3.90;99.90;;;1.40;100.00;101154.66;10653364;27;20126;-81
2023/01/25 18:47:57;;;;;;;29.07;15.73;;;3.90;99.90;;;1.37;100.00;101154.78;10642670;27;20058;-80
2023/01/25 18:53:00;;;;;;;42.47;19.43;;;3.90;99.90;;;1.39;100.00;101148.56;10665458;27;20066;-80
2023/01/25 18:58:04;;;;;;;37.10;18.30;;;3.90;99.90;;;1.34;100.00;101133.09;10657022;27;20135;-80
2023/01/25 19:03:07;;;;;;;45.77;20.67;;;3.90;99.90;;;1.38;100.00;101133.78;10668626;27;20075;-80
2023/01/25 19:08:13;;;;;;;54.43;25.07;;;3.90;99.90;;;1.39;100.00;101121.53;10655207;27;20524;-81
2023/01/25 19:13:16;;;;;;;49.40;21.40;;;3.90;99.90;;;1.39;100.00;101122.38;10689757;27;20059;-81
2023/01/25 19:18:20;;;;;;;58.27;27.10;;;3.90;99.90;;;1.37;100.00;101110.28;10675788;27;20573;-81
2023/01/25 19:23:23;;;;;;;61.23;25.83;;;3.90;99.90;;;1.38;100.00;101112.84;10648359;27;20059;-80
2023/01/25 19:28:26;;;;;;;51.37;22.27;;;3.90;99.90;;;1.38;100.00;101099.75;10660238;27;20061;-80
2023/01/25 19:33:29;;;;;;;50.13;20.93;;;3.90;99.90;;;1.37;100.00;101094.56;10659748;27;20062;-80
2023/01/25 19:38:37;;;;;;;66.07;25.40;;;3.90;99.90;;;1.37;100.00;101091.94;10647461;27;20061;-79
2023/01/25 19:43:41;;;;;;;45.90;19.57;;;3.90;99.90;;;1.37;100.00;101092.78;10649929;27;20055;-79
2023/01/25 19:48:46;;;;;;;95.83;36.53;;;3.90;99.90;;;1.38;100.00;101091.00;10643764;27;20150;-79
2023/01/25 19:53:54;;;;;;;35.77;17.00;;;3.90;99.90;;;1.38;100.00;101094.50;10644919;27;20503;-79
2023/01/25 19:58:57;;;;;;;34.40;15.23;;;3.90;99.90;;;1.38;100.00;101093.63;10654376;27;20055;-79
2023/01/25 20:04:03;;;;;;;36.23;14.97;;;3.90;99.90;;;1.36;100.00;101088.47;10675749;27;20054;-79
2023/01/25 20:09:06;;;;;;;28.47;14.37;;;3.90;99.90;;;1.34;100.00;101080.72;10669463;27;20059;-79
2023/01/25 20:14:11;;;;;;;30.63;14.40;;;3.80;99.90;;;1.34;100.00;101088.56;10672015;27;20056;-79
2023/01/25 20:19:14;;;;;;;36.77;15.67;;;3.80;99.90;;;1.31;100.00;101083.50;10631534;27;20062;-79
2023/01/25 20:24:17;;;;;;;31.10;15.87;;;3.80;99.90;;;1.31;100.00;101073.03;10658581;27;20059;-79
2023/01/25 20:29:21;;;;;;;33.87;15.83;;;3.80;99.90;;;1.31;100.00;101065.16;10635416;27;20055;-79
2023/01/25 20:34:24;;;;;;;35.60;17.07;;;3.80;99.90;;;1.30;100.00;101058.25;10680596;27;20458;-79
2023/01/25 20:39:27;;;;;;;33.17;14.83;;;3.80;99.90;;;1.29;100.00;101058.34;10661145;27;20470;-79
2023/01/25 20:44:30;;;;;;;36.63;15.83;;;3.80;99.90;;;1.24;100.00;101047.28;10664644;27;20399;-79
2023/01/25 20:49:34;;;;;;;30.97;12.77;;;3.70;99.90;;;1.23;100.00;101051.69;10661672;27;20081;-84
2023/01/25 20:54:37;;;;;;;25.63;13.00;;;3.60;99.90;;;1.20;100.00;101049.25;10650805;27;20423;-84
2023/01/25 20:59:40;;;;;;;37.50;17.10;;;3.60;99.90;;;1.17;100.00;101041.56;10640537;27;20150;-84